createdAt,value
2019-05-03T00:02:28.064Z,14.70
2019-05-03T00:04:33.655Z,14.50
2019-05-03T00:06:39.088Z,14.30
2019-05-03T00:08:44.583Z,14.30
2019-05-03T00:10:51.757Z,14.10
2019-05-03T00:12:57.329Z,14.00
2019-05-03T00:15:13.232Z,14.00
2019-05-03T00:17:18.674Z,13.70
2019-05-03T00:19:24.094Z,13.60
2019-05-03T00:21:29.923Z,13.40
2019-05-03T00:23:35.370Z,13.60
2019-05-03T00:25:41.851Z,13.60
2019-05-03T00:27:52.783Z,13.90
2019-05-03T00:29:58.356Z,13.90
2019-05-03T00:32:03.767Z,14.10
2019-05-03T00:34:12.546Z,14.00
2019-05-03T00:36:26.590Z,14.10
2019-05-03T00:38:32.549Z,13.90
2019-05-03T00:40:38.096Z,13.80
2019-05-03T00:42:43.563Z,13.80
2019-05-03T00:44:49.040Z,13.80
2019-05-03T00:46:54.442Z,13.80
2019-05-03T00:48:59.878Z,13.90
2019-05-03T00:51:05.392Z,13.60
2019-05-03T00:53:11.705Z,13.30
2019-05-03T00:55:19.314Z,13.10
2019-05-03T00:57:24.330Z,13.00
2019-05-03T00:59:29.756Z,13.00
2019-05-03T01:01:35.181Z,13.00
2019-05-03T01:03:41.847Z,13.00
2019-05-03T01:05:47.290Z,12.60
2019-05-03T01:07:52.764Z,12.40
2019-05-03T01:09:58.287Z,12.20
2019-05-03T01:12:03.705Z,12.40
2019-05-03T01:14:09.174Z,12.30
2019-05-03T01:16:17.419Z,12.60
2019-05-03T01:18:22.835Z,13.00
2019-05-03T01:20:28.259Z,12.90
2019-05-03T01:22:33.731Z,13.20
2019-05-03T01:24:39.135Z,13.40
2019-05-03T01:26:44.557Z,13.10
2019-05-03T01:28:51.963Z,13.10
2019-05-03T01:30:57.074Z,13.30
2019-05-03T01:33:02.906Z,13.40
2019-05-03T01:35:08.406Z,13.10
2019-05-03T01:37:13.830Z,12.90
2019-05-03T01:39:19.223Z,13.00
2019-05-03T01:41:24.694Z,12.90
2019-05-03T01:43:31.805Z,13.10
2019-05-03T01:45:37.357Z,13.20
2019-05-03T01:47:49.814Z,13.10
2019-05-03T01:50:12.374Z,12.80
2019-05-03T01:52:23.096Z,12.60
2019-05-03T01:54:28.498Z,12.20
2019-05-03T01:56:33.908Z,12.10
2019-05-03T01:58:39.413Z,12.00
2019-05-03T02:00:44.918Z,11.80
2019-05-03T02:03:03.991Z,11.60
2019-05-03T02:05:32.064Z,11.50
2019-05-03T02:07:37.593Z,11.30
2019-05-03T02:09:43.019Z,11.20
2019-05-03T02:11:48.441Z,11.10
2019-05-03T02:13:53.855Z,11.00
2019-05-03T02:15:59.327Z,10.80
2019-05-03T02:18:04.706Z,10.90
2019-05-03T02:20:10.110Z,11.00
2019-05-03T02:22:15.547Z,10.80
2019-05-03T02:24:22.068Z,10.80
2019-05-03T02:26:27.736Z,10.90
2019-05-03T02:28:33.226Z,10.90
2019-05-03T02:30:38.628Z,10.80
2019-05-03T02:32:44.449Z,10.90
2019-05-03T02:34:49.991Z,10.90
2019-05-03T02:36:55.475Z,10.90
2019-05-03T02:39:07.647Z,10.90
2019-05-03T02:41:15.952Z,11.00
2019-05-03T02:43:38.604Z,10.90
2019-05-03T02:46:09.168Z,11.10
2019-05-03T02:48:25.570Z,11.10
2019-05-03T02:50:30.258Z,11.20
2019-05-03T02:52:37.080Z,11.20
2019-05-03T02:54:46.260Z,11.30
2019-05-03T02:56:50.294Z,11.30
2019-05-03T02:58:56.006Z,11.40
2019-05-03T03:01:03.000Z,11.50
2019-05-03T03:03:08.427Z,11.50
2019-05-03T03:05:16.321Z,11.50
2019-05-03T03:07:21.849Z,11.40
2019-05-03T03:09:28.366Z,11.50
2019-05-03T03:11:37.865Z,11.90
2019-05-03T03:13:45.964Z,12.00
2019-05-03T03:15:55.307Z,12.00
2019-05-03T03:18:08.383Z,11.90
2019-05-03T03:20:16.115Z,11.60
2019-05-03T03:22:25.664Z,11.40
2019-05-03T03:24:31.801Z,11.30
2019-05-03T03:26:43.223Z,11.30
2019-05-03T03:28:48.516Z,11.10
2019-05-03T03:31:28.204Z,11.10
2019-05-03T03:33:32.476Z,11.00
2019-05-03T03:35:39.576Z,11.00
2019-05-03T03:37:46.313Z,11.00
2019-05-03T03:39:51.897Z,11.00
2019-05-03T03:41:58.739Z,11.00
2019-05-03T03:44:05.807Z,10.90
2019-05-03T03:46:12.315Z,10.90
2019-05-03T03:48:20.294Z,11.10
2019-05-03T03:50:27.534Z,11.00
2019-05-03T03:52:36.080Z,11.00
2019-05-03T03:54:45.718Z,11.00
2019-05-03T03:57:03.386Z,11.10
2019-05-03T03:59:01.739Z,11.10
2019-05-03T04:01:07.194Z,11.10
2019-05-03T04:03:15.528Z,11.00
2019-05-03T04:05:19.752Z,10.90
2019-05-03T04:07:26.108Z,11.00
2019-05-03T04:09:32.671Z,11.10
2019-05-03T04:11:38.156Z,11.10
2019-05-03T04:13:45.316Z,11.00
2019-05-03T04:16:20.560Z,10.90
2019-05-03T04:18:40.561Z,11.10
2019-05-03T04:20:46.316Z,11.00
2019-05-03T04:22:51.823Z,11.00
2019-05-03T04:24:57.328Z,11.00
2019-05-03T04:27:15.572Z,11.10
2019-05-03T04:29:16.043Z,11.20
2019-05-03T04:31:21.226Z,11.10
2019-05-03T04:33:27.189Z,11.00
2019-05-03T04:35:36.026Z,11.00
2019-05-03T04:37:40.057Z,11.00
2019-05-03T04:39:45.965Z,11.10
2019-05-03T04:41:51.612Z,11.10
2019-05-03T04:43:57.147Z,11.10
2019-05-03T04:46:06.739Z,11.20
2019-05-03T04:48:12.476Z,11.20
2019-05-03T04:50:17.998Z,11.20
2019-05-03T04:52:25.899Z,11.30
2019-05-03T04:54:42.076Z,11.40
2019-05-03T04:56:47.491Z,11.60
2019-05-03T04:58:53.019Z,11.60
2019-05-03T05:00:58.511Z,11.40
2019-05-03T05:03:05.873Z,11.60
2019-05-03T05:05:11.412Z,11.70
2019-05-03T05:07:16.888Z,11.80
2019-05-03T05:09:22.383Z,12.00
2019-05-03T05:11:27.799Z,12.10
2019-05-03T05:13:35.492Z,12.20
2019-05-03T05:15:40.312Z,12.40
2019-05-03T05:17:56.318Z,12.60
2019-05-03T05:20:14.169Z,12.70
2019-05-03T05:22:22.210Z,13.00
2019-05-03T05:24:27.659Z,13.10
2019-05-03T05:26:58.363Z,13.10
2019-05-03T05:29:07.492Z,13.20
2019-05-03T05:31:21.633Z,13.20
2019-05-03T05:33:27.205Z,13.20
2019-05-03T05:35:32.738Z,13.20
2019-05-03T05:37:38.209Z,13.20
2019-05-03T05:39:44.738Z,13.30
2019-05-03T05:41:50.422Z,13.20
2019-05-03T05:43:55.934Z,13.20
2019-05-03T05:46:01.375Z,13.10
2019-05-03T05:48:09.353Z,13.10
2019-05-03T05:50:34.605Z,13.10
2019-05-03T05:52:44.844Z,13.10
2019-05-03T05:54:59.291Z,13.10
2019-05-03T05:57:25.482Z,13.10
2019-05-03T05:59:55.190Z,13.10
2019-05-03T06:02:04.971Z,13.10
2019-05-03T06:04:10.538Z,13.10
2019-05-03T06:06:21.839Z,13.10
2019-05-03T06:08:39.070Z,13.10
2019-05-03T06:11:09.231Z,13.20
2019-05-03T06:13:26.439Z,13.30
2019-05-03T06:15:47.134Z,13.40
2019-05-03T06:17:57.314Z,13.30
2019-05-03T06:20:15.618Z,13.30
2019-05-03T06:22:34.575Z,13.40
2019-05-03T06:24:45.277Z,13.60
2019-05-03T06:26:58.015Z,13.60
2019-05-03T06:29:04.617Z,13.70
2019-05-03T06:31:25.149Z,13.70
2019-05-03T06:33:30.692Z,13.60
2019-05-03T06:35:36.178Z,13.30
2019-05-03T06:37:45.801Z,13.20
2019-05-03T06:39:51.159Z,13.10
2019-05-03T06:41:56.571Z,12.90
2019-05-03T06:44:04.375Z,12.70
2019-05-03T06:46:09.875Z,12.80
2019-05-03T06:48:17.586Z,12.90
2019-05-03T06:50:27.554Z,13.00
2019-05-03T06:52:29.542Z,12.90
2019-05-03T06:54:37.664Z,12.80
2019-05-03T06:56:42.174Z,13.00
2019-05-03T06:58:47.622Z,13.10
2019-05-03T07:01:00.106Z,13.10
2019-05-03T07:03:15.808Z,13.00
2019-05-03T07:05:35.453Z,13.10
2019-05-03T07:07:46.779Z,13.20
2019-05-03T07:09:59.400Z,13.20
2019-05-03T07:12:05.040Z,13.30
2019-05-03T07:14:10.506Z,13.40
2019-05-03T07:16:17.151Z,13.10
2019-05-03T07:18:24.677Z,12.90
2019-05-03T07:20:31.332Z,13.00
2019-05-03T07:22:36.786Z,13.30
2019-05-03T07:24:42.311Z,13.40
2019-05-03T07:26:47.766Z,13.40
2019-05-03T07:28:54.567Z,13.60
2019-05-03T07:31:00.187Z,13.80
2019-05-03T07:33:08.518Z,13.50
2019-05-03T07:35:14.762Z,13.80
2019-05-03T07:37:20.575Z,13.80
2019-05-03T07:39:25.962Z,13.80
2019-05-03T07:41:31.409Z,13.90
2019-05-03T07:43:36.930Z,14.20
2019-05-03T07:45:42.366Z,14.10
2019-05-03T07:47:47.870Z,14.30
2019-05-03T07:49:54.686Z,14.10
2019-05-03T07:52:00.224Z,14.30
2019-05-03T07:54:05.742Z,14.40
2019-05-03T07:56:15.802Z,14.30
2019-05-03T07:58:22.462Z,14.50
2019-05-03T08:00:27.874Z,14.50
2019-05-03T08:02:33.291Z,14.50
2019-05-03T08:04:38.725Z,14.30
2019-05-03T08:06:44.595Z,14.60
2019-05-03T08:08:50.238Z,14.60
2019-05-03T08:10:55.683Z,14.60
2019-05-03T08:13:01.095Z,14.40
2019-05-03T08:15:07.177Z,14.40
2019-05-03T08:32:39.166Z,14.10
2019-05-03T08:35:06.291Z,14.30
2019-05-03T08:37:17.643Z,14.40
2019-05-03T08:39:25.207Z,14.40
2019-05-03T08:41:31.755Z,14.20
2019-05-03T08:43:37.299Z,14.20
2019-05-03T08:45:44.623Z,14.40
2019-05-03T08:47:49.931Z,14.60
2019-05-03T08:49:55.621Z,15.00
2019-05-03T08:52:01.052Z,15.20
2019-05-03T08:54:06.579Z,15.40
2019-05-03T08:56:11.803Z,15.60
2019-05-03T08:58:17.241Z,15.70
2019-05-03T09:00:24.992Z,15.90
2019-05-03T09:02:30.194Z,16.40
2019-05-03T09:04:38.114Z,16.60
2019-05-03T09:06:42.242Z,16.80
2019-05-03T09:08:47.463Z,16.80
2019-05-03T09:11:06.714Z,16.50
2019-05-03T09:13:17.149Z,16.80
2019-05-03T09:15:22.318Z,16.80
2019-05-03T09:17:27.463Z,17.00
2019-05-03T09:19:34.667Z,17.60
2019-05-03T09:21:39.783Z,17.50
2019-05-03T09:23:45.188Z,17.70
2019-05-03T09:25:50.484Z,18.80
2019-05-03T09:27:55.680Z,19.20
2019-05-03T09:30:01.431Z,19.40
2019-05-03T09:32:06.684Z,19.70
2019-05-03T09:34:11.916Z,20.50
2019-05-03T09:36:17.098Z,19.70
2019-05-03T09:38:22.247Z,19.60
2019-05-03T09:40:28.083Z,20.10
2019-05-03T09:42:35.127Z,19.40
2019-05-03T09:44:40.186Z,19.40
2019-05-03T09:46:45.414Z,20.00
2019-05-03T09:48:50.606Z,20.40
2019-05-03T09:50:55.805Z,20.10
2019-05-03T09:53:09.030Z,20.20
2019-05-03T09:55:19.919Z,19.90
2019-05-03T09:57:25.095Z,19.80
2019-05-03T09:59:30.751Z,19.80
2019-05-03T10:01:35.955Z,19.90
2019-05-03T10:03:41.139Z,20.30
2019-05-03T10:05:46.286Z,20.20
2019-05-03T10:07:51.424Z,20.00
2019-05-03T10:09:56.645Z,20.30
2019-05-03T10:12:02.379Z,20.30
2019-05-03T10:14:07.667Z,20.20
2019-05-03T10:16:12.808Z,20.00
2019-05-03T10:18:17.939Z,19.90
2019-05-03T10:20:25.301Z,19.10
2019-05-03T10:22:30.567Z,19.10
2019-05-03T10:24:35.846Z,19.30
2019-05-03T10:26:41.003Z,19.30
2019-05-03T10:28:46.152Z,19.40
2019-05-03T10:30:51.359Z,19.10
2019-05-03T10:33:06.087Z,18.70
2019-05-03T10:35:14.975Z,18.40
2019-05-03T10:37:30.647Z,18.30
2019-05-03T10:39:36.293Z,18.40
2019-05-03T10:41:41.813Z,17.90
2019-05-03T10:43:46.975Z,17.80
2019-05-03T10:45:52.126Z,17.50
2019-05-03T10:47:57.307Z,17.20
2019-05-03T10:50:04.568Z,16.90
2019-05-03T10:52:10.336Z,16.90
2019-05-03T10:54:15.500Z,17.10
2019-05-03T10:56:45.269Z,16.60
2019-05-03T10:59:09.818Z,16.60
2019-05-03T11:01:15.942Z,16.40
2019-05-03T11:03:21.099Z,16.40
2019-05-03T11:05:26.354Z,16.40
2019-05-03T11:07:31.526Z,16.40
2019-05-03T11:09:48.849Z,16.30
2019-05-03T11:11:45.164Z,16.10
2019-05-03T11:13:50.379Z,15.80
2019-05-03T11:15:55.502Z,15.70
2019-05-03T11:18:00.671Z,15.60
2019-05-03T11:20:05.995Z,15.50
2019-05-03T11:22:11.172Z,15.60
2019-05-03T11:24:16.658Z,15.80
2019-05-03T11:26:21.843Z,15.70
2019-05-03T11:28:27.047Z,15.50
2019-05-03T11:30:32.567Z,15.20
2019-05-03T11:32:52.153Z,15.00
2019-05-03T11:35:28.754Z,14.90
2019-05-03T11:37:41.339Z,14.90
2019-05-03T11:39:46.791Z,14.60
2019-05-03T11:41:55.475Z,14.50
2019-05-03T11:44:19.836Z,14.40
2019-05-03T11:46:25.329Z,14.30
2019-05-03T11:48:30.829Z,14.20
2019-05-03T11:50:36.254Z,14.20
2019-05-03T11:52:41.690Z,14.40
2019-05-03T11:54:47.117Z,14.40
2019-05-03T11:56:53.150Z,14.40
2019-05-03T11:58:58.579Z,14.60
2019-05-03T12:01:16.280Z,14.50
2019-05-03T12:03:32.563Z,14.40
2019-05-03T12:05:38.146Z,14.20
2019-05-03T12:07:45.499Z,14.00
2019-05-03T12:09:50.643Z,13.80
2019-05-03T12:11:56.350Z,13.80
2019-05-03T12:14:11.537Z,14.10
2019-05-03T12:16:25.704Z,14.40
2019-05-03T12:18:25.168Z,14.40
2019-05-03T12:20:32.153Z,14.40
2019-05-03T12:22:39.893Z,14.40
2019-05-03T12:24:46.475Z,14.10
2019-05-03T12:26:52.363Z,14.10
2019-05-03T12:28:57.770Z,13.90
2019-05-03T12:31:04.921Z,13.60
2019-05-03T12:33:10.319Z,13.70
2019-05-03T12:35:15.853Z,13.70
2019-05-03T12:37:21.335Z,14.00
2019-05-03T12:39:30.309Z,14.20
2019-05-03T12:41:33.875Z,14.20
2019-05-03T12:43:39.298Z,14.60
2019-05-03T12:45:44.808Z,14.90
2019-05-03T12:47:50.005Z,15.20
2019-05-03T12:49:55.905Z,15.40
2019-05-03T12:52:01.288Z,15.60
2019-05-03T12:54:06.507Z,15.40
2019-05-03T12:56:13.731Z,15.90
2019-05-03T12:58:18.577Z,16.10
2019-05-03T13:00:35.430Z,15.90
2019-05-03T13:02:44.707Z,16.00
2019-05-03T13:04:52.035Z,16.50
2019-05-03T13:07:05.455Z,17.00
2019-05-03T13:09:10.932Z,17.70
2019-05-03T13:11:16.075Z,17.90
2019-05-03T13:13:21.220Z,18.00
2019-05-03T13:15:26.425Z,18.00
2019-05-03T13:17:37.875Z,18.40
2019-05-03T13:19:45.049Z,18.50
2019-05-03T13:21:50.017Z,18.30
2019-05-03T13:23:55.223Z,18.30
2019-05-03T13:26:00.398Z,18.50
2019-05-03T13:28:05.681Z,17.90
2019-05-03T13:30:11.754Z,17.90
2019-05-03T13:32:16.896Z,17.60
2019-05-03T13:34:22.078Z,17.50
2019-05-03T13:36:27.306Z,17.10
2019-05-03T13:38:34.701Z,17.30
2019-05-03T13:40:39.307Z,17.00
2019-05-03T13:42:56.071Z,17.00
2019-05-03T13:44:51.301Z,17.20
2019-05-03T13:46:56.444Z,17.00
2019-05-03T13:49:01.611Z,16.90
2019-05-03T13:51:06.834Z,16.80
2019-05-03T13:53:12.030Z,16.60
2019-05-03T13:55:17.232Z,16.40
2019-05-03T13:57:24.528Z,16.60
2019-05-03T13:59:29.247Z,16.80
2019-05-03T14:01:34.488Z,16.90
2019-05-03T14:03:39.707Z,16.90
2019-05-03T14:05:44.869Z,17.30
2019-05-03T14:07:56.399Z,17.10
2019-05-03T14:10:01.712Z,17.50
2019-05-03T14:12:07.613Z,17.90
2019-05-03T14:14:15.063Z,17.90
2019-05-03T14:16:19.710Z,17.90
2019-05-03T14:18:25.636Z,17.50
2019-05-03T14:20:54.941Z,17.20
2019-05-03T14:22:59.793Z,17.60
2019-05-03T14:25:05.091Z,17.40
2019-05-03T14:27:10.226Z,17.10
2019-05-03T14:29:15.435Z,17.40
2019-05-03T14:31:20.583Z,17.30
2019-05-03T14:33:28.269Z,17.30
2019-05-03T14:35:34.530Z,17.00
2019-05-03T14:37:39.531Z,16.90
2019-05-03T14:39:46.786Z,16.70
2019-05-03T14:41:51.530Z,16.30
2019-05-03T14:43:56.669Z,16.20
2019-05-03T14:46:01.932Z,15.90
2019-05-03T14:48:07.135Z,15.70
2019-05-03T14:50:14.791Z,15.40
2019-05-03T14:52:19.331Z,15.40
2019-05-03T14:54:26.090Z,15.50
2019-05-03T14:56:45.560Z,15.50
2019-05-03T14:59:09.806Z,15.50
2019-05-03T15:01:27.826Z,15.40
2019-05-03T15:03:34.758Z,15.30
2019-05-03T15:05:39.826Z,15.30
2019-05-03T15:07:45.859Z,15.50
2019-05-03T15:09:51.242Z,15.50
2019-05-03T15:11:56.511Z,15.40
2019-05-03T15:14:01.634Z,15.40
2019-05-03T15:16:06.820Z,15.40
2019-05-03T15:18:11.971Z,15.40
2019-05-03T15:20:17.170Z,15.30
2019-05-03T15:22:22.367Z,15.20
2019-05-03T15:24:27.562Z,15.10
2019-05-03T15:26:32.776Z,14.90
2019-05-03T15:28:37.966Z,14.60
2019-05-03T15:30:44.520Z,14.10
2019-05-03T15:32:57.656Z,13.60
2019-05-03T15:34:57.344Z,13.30
2019-05-03T15:37:05.191Z,12.80
2019-05-03T15:39:09.979Z,12.70
2019-05-03T15:41:15.414Z,12.40
2019-05-03T15:43:28.928Z,12.40
2019-05-03T15:45:45.835Z,12.30
2019-05-03T15:48:09.008Z,12.30
2019-05-03T15:50:15.523Z,12.30
2019-05-03T15:52:21.295Z,12.20
2019-05-03T15:54:26.703Z,12.20
2019-05-03T15:56:32.243Z,12.30
2019-05-03T15:58:37.671Z,12.20
2019-05-03T16:00:44.566Z,12.20
2019-05-03T16:02:50.787Z,12.10
2019-05-03T16:04:58.654Z,12.00
2019-05-03T16:07:04.921Z,12.00
2019-05-03T16:09:10.463Z,11.90
2019-05-03T16:11:15.907Z,11.80
2019-05-03T16:13:21.434Z,11.90
2019-05-03T16:15:26.850Z,11.80
2019-05-03T16:17:32.291Z,11.90
2019-05-03T16:19:37.710Z,12.00
2019-05-03T16:21:45.101Z,11.90
2019-05-03T16:23:50.304Z,12.00
2019-05-03T16:25:55.806Z,11.90
2019-05-03T16:28:20.438Z,12.00
2019-05-03T16:30:45.465Z,11.80
2019-05-03T16:32:51.104Z,11.70
2019-05-03T16:34:56.543Z,11.60
2019-05-03T16:37:01.994Z,11.50
2019-05-03T16:39:08.510Z,11.40
2019-05-03T16:41:17.408Z,11.30
2019-05-03T16:43:21.155Z,11.30
2019-05-03T16:45:26.595Z,11.40
2019-05-03T16:47:32.023Z,11.50
2019-05-03T16:49:37.542Z,11.50
2019-05-03T16:51:44.298Z,11.50
2019-05-03T16:53:49.842Z,11.60
2019-05-03T16:55:55.879Z,11.60
2019-05-03T16:58:01.316Z,11.50
2019-05-03T17:00:07.098Z,11.50
2019-05-03T17:02:17.450Z,11.50
2019-05-03T17:04:37.707Z,11.40
2019-05-03T17:06:51.757Z,11.40
2019-05-03T17:09:11.199Z,11.50
2019-05-03T17:11:18.435Z,11.50
2019-05-03T17:13:27.257Z,11.50
2019-05-03T17:15:32.714Z,11.40
2019-05-03T17:17:38.333Z,11.30
2019-05-03T17:19:55.124Z,11.30
2019-05-03T17:21:59.814Z,11.20
2019-05-03T17:24:06.322Z,11.10
2019-05-03T17:26:11.998Z,11.10
2019-05-03T17:28:17.434Z,11.20
2019-05-03T17:30:32.657Z,11.20
2019-05-03T17:32:31.771Z,11.20
2019-05-03T17:34:37.323Z,11.10
2019-05-03T17:36:42.731Z,10.90
2019-05-03T17:38:49.884Z,10.80
2019-05-03T17:41:10.638Z,10.70
2019-05-03T17:43:35.070Z,10.70
2019-05-03T17:45:45.417Z,10.70
2019-05-03T17:47:50.976Z,10.70
2019-05-03T17:49:56.406Z,10.70
2019-05-03T17:52:20.899Z,10.70
2019-05-03T17:55:00.368Z,10.70
2019-05-03T17:57:15.518Z,10.70
2019-05-03T17:59:35.124Z,10.70
2019-05-03T18:02:06.326Z,10.60
2019-05-03T18:04:32.508Z,10.60
2019-05-03T18:06:45.118Z,10.60
2019-05-03T18:09:04.437Z,10.60
2019-05-03T18:11:14.768Z,10.60
2019-05-03T18:13:20.391Z,10.50
2019-05-03T18:15:29.170Z,10.50
2019-05-03T18:17:35.230Z,10.40
2019-05-03T18:19:41.130Z,10.40
2019-05-03T18:21:46.694Z,10.30
2019-05-03T18:23:52.098Z,10.30
2019-05-03T18:25:57.534Z,10.30
2019-05-03T18:28:03.132Z,10.30
2019-05-03T18:30:09.487Z,10.30
2019-05-03T18:32:15.079Z,10.20
2019-05-03T18:34:24.944Z,10.20
2019-05-03T18:36:32.333Z,10.20
2019-05-03T18:38:40.523Z,10.20
2019-05-03T18:40:46.631Z,10.20
2019-05-03T18:42:55.232Z,10.10
2019-05-03T18:45:04.634Z,10.10
2019-05-03T18:47:14.675Z,10.00
2019-05-03T18:49:21.819Z,10.00
2019-05-03T18:51:27.387Z,10.10
2019-05-03T18:53:34.471Z,10.10
2019-05-03T18:55:40.021Z,10.10
2019-05-03T18:57:45.567Z,10.00
2019-05-03T18:59:51.127Z,10.00
2019-05-03T19:01:56.525Z,9.80
2019-05-03T19:04:11.040Z,9.80
2019-05-03T19:06:18.869Z,9.80
2019-05-03T19:08:46.218Z,9.90
2019-05-03T19:10:55.758Z,9.80
2019-05-03T19:13:14.993Z,9.90
2019-05-03T19:15:20.807Z,9.90
2019-05-03T19:17:48.170Z,10.00
2019-05-03T19:19:55.199Z,9.90
2019-05-03T19:22:00.726Z,9.90
2019-05-03T19:24:06.146Z,10.00
2019-05-03T19:26:11.562Z,10.00
2019-05-03T19:28:17.036Z,10.00
2019-05-03T19:30:24.459Z,10.00
2019-05-03T19:32:30.874Z,10.10
2019-05-03T19:34:47.852Z,10.20
2019-05-03T19:36:45.607Z,10.10
2019-05-03T19:38:51.222Z,10.00
2019-05-03T19:40:57.059Z,10.10
2019-05-03T19:43:03.300Z,10.10
2019-05-03T19:45:10.774Z,10.10
2019-05-03T19:47:17.389Z,10.00
2019-05-03T19:49:24.594Z,10.00
2019-05-03T19:51:34.432Z,10.10
2019-05-03T19:53:48.894Z,10.00
2019-05-03T19:55:55.325Z,10.10
2019-05-03T19:58:01.062Z,10.10
2019-05-03T20:00:08.675Z,10.10
2019-05-03T20:02:25.786Z,10.00
2019-05-03T20:04:57.635Z,10.00
2019-05-03T20:07:05.558Z,10.00
2019-05-03T20:09:15.097Z,10.10
2019-05-03T20:11:25.187Z,10.10
2019-05-03T20:13:34.585Z,10.10
2019-05-03T20:15:38.003Z,10.10
2019-05-03T20:17:54.699Z,10.10
2019-05-03T20:19:50.926Z,10.10
2019-05-03T20:21:58.135Z,10.10
2019-05-03T20:24:05.572Z,10.10
2019-05-03T20:26:11.567Z,10.10
2019-05-03T20:28:19.923Z,10.00
2019-05-03T20:30:27.487Z,10.00
2019-05-03T20:32:34.484Z,10.00
2019-05-03T20:34:44.451Z,10.00
2019-05-03T20:36:49.999Z,10.00
2019-05-03T20:38:56.274Z,10.10
2019-05-03T20:41:01.865Z,10.00
2019-05-03T20:43:29.005Z,10.00
2019-05-03T20:46:15.082Z,9.80
2019-05-03T20:48:21.689Z,9.60
2019-05-03T20:50:27.696Z,9.60
2019-05-03T20:52:35.218Z,9.50
2019-05-03T20:54:41.087Z,9.40
2019-05-03T20:56:46.572Z,9.30
2019-05-03T20:58:51.997Z,9.30
2019-05-03T21:00:57.943Z,9.30
2019-05-03T21:03:04.940Z,9.30
2019-05-03T21:05:23.797Z,9.30
2019-05-03T21:07:17.903Z,9.30
2019-05-03T21:09:23.379Z,9.10
2019-05-03T21:11:28.777Z,9.20
2019-05-03T21:13:41.869Z,9.10
2019-05-03T21:15:52.554Z,9.10
2019-05-03T21:18:17.247Z,8.90
2019-05-03T21:20:45.044Z,8.90
2019-05-03T21:22:51.476Z,8.90
2019-05-03T21:25:25.022Z,8.80
2019-05-03T21:27:30.446Z,8.80
2019-05-03T21:29:48.963Z,8.90
2019-05-03T21:31:55.267Z,8.90
2019-05-03T21:34:00.776Z,8.90
2019-05-03T21:36:06.291Z,8.90
2019-05-03T21:38:12.017Z,8.90
2019-05-03T21:40:18.163Z,8.80
2019-05-03T21:42:23.669Z,8.80
2019-05-03T21:44:34.100Z,8.80
2019-05-03T21:46:45.052Z,8.80
2019-05-03T21:49:02.153Z,8.80
2019-05-03T21:51:07.836Z,8.80
2019-05-03T21:53:14.742Z,8.80
2019-05-03T21:55:20.545Z,8.80
2019-05-03T21:57:26.462Z,8.80
2019-05-03T21:59:31.866Z,8.80
2019-05-03T22:01:40.223Z,8.80
2019-05-03T22:03:45.778Z,8.70
2019-05-03T22:05:54.950Z,8.70
2019-05-03T22:07:58.460Z,8.60
2019-05-03T22:10:05.066Z,8.60
2019-05-03T22:12:10.876Z,8.60
2019-05-03T22:14:27.609Z,8.60
2019-05-03T22:16:46.479Z,8.60
2019-05-03T22:18:54.612Z,8.60
2019-05-03T22:21:15.623Z,8.60
2019-05-03T22:23:40.374Z,8.50
2019-05-03T22:25:46.180Z,8.50
2019-05-03T22:27:51.723Z,8.50
2019-05-03T22:29:59.001Z,8.60
2019-05-03T22:32:05.288Z,8.50
2019-05-03T22:34:10.983Z,8.50
2019-05-03T22:36:16.487Z,8.50
2019-05-03T22:38:21.908Z,8.60
2019-05-03T22:40:27.298Z,8.50
2019-05-03T22:42:34.437Z,8.40
2019-05-03T22:44:39.807Z,8.40
2019-05-03T22:46:45.234Z,8.40
2019-05-03T22:48:50.758Z,8.30
2019-05-03T22:50:57.064Z,8.30
2019-05-03T22:53:02.472Z,8.30
2019-05-03T22:55:08.235Z,8.30
2019-05-03T22:57:15.286Z,8.30
2019-05-03T22:59:20.898Z,8.40
2019-05-03T23:01:28.292Z,8.40
2019-05-03T23:03:42.328Z,8.40
2019-05-03T23:05:49.459Z,8.40
2019-05-03T23:07:55.239Z,8.40
2019-05-03T23:10:00.891Z,8.40
2019-05-03T23:12:06.323Z,8.40
2019-05-03T23:14:11.795Z,8.40
2019-05-03T23:16:17.299Z,8.40
2019-05-03T23:18:24.516Z,8.30
2019-05-03T23:20:39.424Z,8.30
2019-05-03T23:22:45.569Z,8.30
2019-05-03T23:24:51.188Z,8.30
2019-05-03T23:26:56.624Z,8.40
2019-05-03T23:29:02.112Z,8.40
2019-05-03T23:31:07.520Z,8.40
2019-05-03T23:33:14.524Z,8.50
2019-05-03T23:35:20.236Z,8.30
2019-05-03T23:37:26.696Z,8.40
2019-05-03T23:39:32.091Z,8.40
2019-05-03T23:41:37.508Z,8.40
2019-05-03T23:43:44.908Z,8.30
2019-05-03T23:45:50.151Z,8.30
2019-05-03T23:47:55.562Z,8.40
2019-05-03T23:50:01.054Z,8.30
2019-05-03T23:52:25.765Z,8.30
2019-05-03T23:54:31.344Z,8.30
2019-05-03T23:56:36.855Z,8.30
2019-05-03T23:58:42.287Z,8.30
